Terminal Aerodrome Forecast
Issued by NWS

Home | Current Version | Previous Version | Text Only | Print | Product List | Glossary On
Versions: 1 2 3 4 5 6 7 8 9 10 11 12 13 14 15 16 17 18 19 20 21 22
000
FTUS45 KCYS 191120
TAFAIA
TAF
KAIA 191120Z 1912/2012 16007KT P6SM SCT250
     FM191700 21010KT P6SM SCT200
     FM192200 16010KT P6SM SCT080
     FM200600 30011KT P6SM VCSH BKN060=

USA.gov is the U.S. government's official web portal to all federal, state and local government web resources and services.